Campus, New Mexico
Current Conditions -  °F | °C
As of 1:15 PM on Wednesday 28 Jan 2015 (Local Time) from KONM Reporting Station
NA  
Wind Chill: 66°   Ceiling: NA
Heat Index: 66°   Visibility: 10mi
Dew Point: 35°   Wind: 7mph
Humidity: 31%   Direction: 160°SSE
Pressure: 30.17"   Gusts: NA
Location:  33.8946°N, 106.565°W
Report Text: KONM 282015Z AUTO 16006KT 10SM 19/02 A3017 RMK AO2 T01900015
Loading
Personal Weather Stations






























Interactive Weather Map New forecast layout! Learn more

10-Day Weather Forecast

Advertisements
Track Severe Weather on mobile